createdAt,value
2019-06-10T00:02:07.255Z,3.30
2019-06-10T00:04:37.556Z,4.15
2019-06-10T00:07:11.842Z,4.25
2019-06-10T00:09:41.435Z,3.70
2019-06-10T00:12:12.768Z,3.60
2019-06-10T00:14:43.021Z,3.50
2019-06-10T00:17:13.198Z,2.67
2019-06-10T00:19:43.300Z,2.83
2019-06-10T00:22:13.703Z,4.33
2019-06-10T00:24:43.956Z,5.00
2019-06-10T00:27:14.293Z,4.05
2019-06-10T00:29:44.380Z,3.85
2019-06-10T00:32:14.738Z,5.80
2019-06-10T00:34:45.267Z,6.45
2019-06-10T00:37:15.315Z,6.90
2019-06-10T00:39:45.367Z,3.60
2019-06-10T00:42:15.558Z,4.72
2019-06-10T00:44:45.656Z,3.62
2019-06-10T00:47:15.773Z,4.08
2019-06-10T00:49:45.973Z,4.05
2019-06-10T00:52:15.951Z,4.20
2019-06-10T00:54:46.221Z,6.92
2019-06-10T00:57:16.833Z,5.45
2019-06-10T00:59:47.546Z,3.60
2019-06-10T01:02:17.904Z,3.15
2019-06-10T01:04:48.203Z,3.42
2019-06-10T01:07:18.704Z,4.60
2019-06-10T01:09:48.829Z,2.85
2019-06-10T01:12:20.997Z,3.00
2019-06-10T01:14:51.721Z,3.77
2019-06-10T01:17:22.452Z,2.30
2019-06-10T01:19:53.085Z,2.50
2019-06-10T01:22:23.145Z,3.20
2019-06-10T01:24:53.189Z,2.90
2019-06-10T01:27:23.256Z,2.80
2019-06-10T01:29:54.003Z,3.20
2019-06-10T01:32:24.010Z,2.60
2019-06-10T01:34:54.661Z,2.15
2019-06-10T01:37:24.818Z,3.20
2019-06-10T01:39:54.846Z,2.30
2019-06-10T01:42:24.916Z,2.12
2019-06-10T01:44:54.937Z,1.80
2019-06-10T01:47:25.273Z,2.10
2019-06-10T01:49:55.304Z,2.10
2019-06-10T01:52:25.379Z,1.90
2019-06-10T01:54:55.522Z,1.90
2019-06-10T01:57:26.094Z,1.90
2019-06-10T01:59:56.437Z,1.80
2019-06-10T02:02:26.638Z,2.05
2019-06-10T02:04:56.767Z,2.10
2019-06-10T02:07:26.885Z,1.90
2019-06-10T02:09:56.976Z,1.80
2019-06-10T02:12:27.121Z,2.12
2019-06-10T02:14:57.300Z,1.90
2019-06-10T02:17:27.993Z,2.37
2019-06-10T02:19:58.042Z,2.40
2019-06-10T02:22:28.049Z,2.00
2019-06-10T02:24:58.333Z,2.20
2019-06-10T02:27:28.296Z,2.20
2019-06-10T02:29:58.380Z,2.70
2019-06-10T02:32:33.012Z,3.20
2019-06-10T02:35:08.838Z,3.08
2019-06-10T02:37:37.739Z,2.50
2019-06-10T02:40:04.862Z,2.90
2019-06-10T02:42:39.421Z,2.50
2019-06-10T02:45:13.823Z,2.90
2019-06-10T02:47:44.417Z,2.20
2019-06-10T02:50:17.212Z,3.40
2019-06-10T02:52:46.094Z,4.20
2019-06-10T02:55:19.547Z,3.80
2019-06-10T02:57:48.275Z,3.40
2019-06-10T03:00:26.766Z,3.10
2019-06-10T03:02:52.923Z,3.10
2019-06-10T03:05:29.698Z,2.98
2019-06-10T03:07:53.720Z,2.85
2019-06-10T03:10:30.128Z,3.33
2019-06-10T03:12:55.503Z,2.45
2019-06-10T03:15:26.747Z,3.37
2019-06-10T03:17:57.139Z,3.90
2019-06-10T03:20:28.410Z,3.60
2019-06-10T03:22:58.538Z,2.90
2019-06-10T03:25:28.970Z,3.10
2019-06-10T03:27:59.481Z,3.10
2019-06-10T03:30:46.454Z,2.80
2019-06-10T03:33:04.823Z,2.52
2019-06-10T03:35:33.249Z,2.60
2019-06-10T03:38:03.502Z,2.20
2019-06-10T03:40:33.460Z,2.47
2019-06-10T03:43:03.529Z,2.40
2019-06-10T03:45:33.745Z,2.52
2019-06-10T03:48:04.244Z,2.40
2019-06-10T03:50:34.400Z,2.37
2019-06-10T03:53:05.180Z,2.65
2019-06-10T03:55:35.374Z,2.75
2019-06-10T03:58:05.644Z,2.65
2019-06-10T04:00:36.990Z,2.47
2019-06-10T04:03:07.195Z,2.60
2019-06-10T04:05:37.291Z,2.80
2019-06-10T04:08:07.957Z,2.90
2019-06-10T04:10:38.062Z,3.55
2019-06-10T04:13:08.583Z,4.55
2019-06-10T04:15:38.793Z,3.83
2019-06-10T04:18:09.453Z,3.12
2019-06-10T04:20:42.932Z,2.80
2019-06-10T04:23:12.587Z,3.33
2019-06-10T04:25:44.416Z,3.27
2019-06-10T04:28:14.731Z,2.70
2019-06-10T04:30:45.139Z,2.70
2019-06-10T04:33:15.490Z,2.40
2019-06-10T04:35:45.514Z,2.70
2019-06-10T04:38:15.598Z,3.00
2019-06-10T04:40:45.748Z,2.40
2019-06-10T04:43:15.749Z,2.30
2019-06-10T04:45:45.749Z,2.73
2019-06-10T04:48:16.239Z,2.70
2019-06-10T04:50:46.647Z,2.70
2019-06-10T04:53:16.865Z,2.80
2019-06-10T04:55:47.049Z,3.20
2019-06-10T04:58:17.249Z,2.72
2019-06-10T05:00:47.353Z,2.50
2019-06-10T05:03:18.896Z,2.75
2019-06-10T05:05:49.303Z,2.77
2019-06-10T05:08:19.384Z,2.70
2019-06-10T05:10:49.760Z,2.65
2019-06-10T05:13:21.835Z,2.80
2019-06-10T05:15:52.703Z,2.10
2019-06-10T05:18:25.506Z,2.60
2019-06-10T05:20:58.567Z,3.27
2019-06-10T05:23:27.860Z,3.08
2019-06-10T05:25:58.134Z,2.40
2019-06-10T05:28:28.741Z,2.60
2019-06-10T05:30:59.042Z,2.80
2019-06-10T05:33:29.100Z,2.60
2019-06-10T05:35:59.334Z,2.87
2019-06-10T05:38:31.269Z,2.85
2019-06-10T05:41:02.963Z,2.50
2019-06-10T05:43:34.655Z,2.50
2019-06-10T05:46:05.232Z,2.85
2019-06-10T05:48:35.267Z,2.90
2019-06-10T05:51:06.916Z,2.80
2019-06-10T05:53:37.275Z,3.00
2019-06-10T05:56:07.736Z,3.20
2019-06-10T05:58:37.798Z,3.30
2019-06-10T06:01:08.088Z,3.20
2019-06-10T06:03:38.234Z,3.00
2019-06-10T06:06:08.657Z,3.00
2019-06-10T06:08:39.051Z,2.85
2019-06-10T06:11:09.361Z,2.90
2019-06-10T06:13:39.801Z,3.20
2019-06-10T06:16:12.351Z,3.00
2019-06-10T06:18:42.189Z,3.08
2019-06-10T06:21:25.373Z,3.22
2019-06-10T06:23:44.768Z,3.22
2019-06-10T06:26:16.270Z,3.40
2019-06-10T06:28:46.412Z,3.27
2019-06-10T06:31:16.604Z,3.70
2019-06-10T06:33:46.735Z,3.10
2019-06-10T06:36:16.935Z,3.67
2019-06-10T06:38:47.098Z,3.25
2019-06-10T06:41:17.813Z,3.12
2019-06-10T06:43:48.673Z,3.80
2019-06-10T06:46:18.938Z,3.30
2019-06-10T06:48:49.055Z,2.60
2019-06-10T06:51:35.518Z,3.40
2019-06-10T06:53:55.438Z,3.00
2019-06-10T06:56:23.409Z,3.00
2019-06-10T06:58:53.425Z,2.70
2019-06-10T07:01:25.967Z,3.10
2019-06-10T07:03:56.025Z,3.30
2019-06-10T07:06:26.303Z,3.15
2019-06-10T07:09:04.030Z,3.40
2019-06-10T07:11:34.554Z,2.87
2019-06-10T07:14:05.490Z,3.50
2019-06-10T07:16:38.999Z,3.37
2019-06-10T07:19:15.233Z,3.20
2019-06-10T07:22:05.360Z,3.50
2019-06-10T07:24:17.906Z,3.40
2019-06-10T07:26:52.163Z,3.25
2019-06-10T07:29:22.434Z,3.10
2019-06-10T07:31:53.572Z,3.10
2019-06-10T07:34:23.359Z,3.62
2019-06-10T07:36:53.592Z,3.00
2019-06-10T07:39:23.777Z,3.50
2019-06-10T07:41:53.623Z,3.30
2019-06-10T07:44:23.687Z,2.80
2019-06-10T07:46:53.666Z,2.98
2019-06-10T07:49:23.957Z,3.20
2019-06-10T07:51:54.233Z,3.30
2019-06-10T07:54:24.519Z,3.00
2019-06-10T07:56:54.576Z,3.10
2019-06-10T07:59:24.797Z,3.20
2019-06-10T08:01:55.494Z,3.02
2019-06-10T08:04:25.543Z,3.10
2019-06-10T08:06:55.704Z,2.45
2019-06-10T08:09:25.677Z,2.70
2019-06-10T08:11:55.957Z,2.50
2019-06-10T08:14:26.431Z,2.35
2019-06-10T08:16:56.441Z,2.70
2019-06-10T08:19:34.971Z,2.72
2019-06-10T08:21:58.788Z,2.52
2019-06-10T08:24:28.874Z,2.67
2019-06-10T08:26:58.952Z,2.70
2019-06-10T08:29:29.334Z,2.47
2019-06-10T08:31:59.386Z,2.75
2019-06-10T08:34:29.509Z,2.20
2019-06-10T08:36:59.528Z,2.65
2019-06-10T08:39:29.615Z,2.60
2019-06-10T08:41:59.750Z,2.70
2019-06-10T08:44:32.595Z,2.72
2019-06-10T08:47:03.142Z,2.70
2019-06-10T08:49:33.668Z,2.70
2019-06-10T08:52:03.883Z,3.00
2019-06-10T08:54:34.198Z,2.70
2019-06-10T08:57:04.700Z,2.30
2019-06-10T08:59:34.760Z,2.60
2019-06-10T09:02:04.870Z,2.42
2019-06-10T09:04:35.150Z,2.90
2019-06-10T09:07:05.543Z,2.62
2019-06-10T09:09:40.506Z,2.75
2019-06-10T09:12:28.392Z,3.00
2019-06-10T09:14:44.069Z,2.90
2019-06-10T09:17:15.106Z,2.70
2019-06-10T09:19:47.887Z,2.90
2019-06-10T09:22:17.220Z,2.70
2019-06-10T09:24:52.381Z,2.67
2019-06-10T09:27:26.091Z,2.90
2019-06-10T09:29:56.147Z,2.70
2019-06-10T09:32:32.483Z,2.45
2019-06-10T09:35:12.611Z,2.70
2019-06-10T09:37:55.717Z,2.70
2019-06-10T09:40:48.380Z,2.90
2019-06-10T09:43:15.450Z,2.65
2019-06-10T09:45:50.214Z,2.80
2019-06-10T09:48:24.454Z,2.50
2019-06-10T09:50:58.487Z,2.83
2019-06-10T09:53:39.087Z,2.50
2019-06-10T09:55:59.171Z,3.00
2019-06-10T09:58:33.606Z,2.90
2019-06-10T10:01:19.043Z,3.33
2019-06-10T10:03:50.218Z,3.02
2019-06-10T10:06:17.679Z,3.30
2019-06-10T10:08:52.376Z,2.55
2019-06-10T10:11:21.249Z,2.83
2019-06-10T10:13:52.703Z,2.70
2019-06-10T10:16:23.209Z,2.98
2019-06-10T10:19:00.160Z,2.92
2019-06-10T10:21:28.496Z,3.10
2019-06-10T10:24:08.072Z,2.62
2019-06-10T10:26:35.178Z,2.77
2019-06-10T10:29:05.742Z,2.85
2019-06-10T10:31:36.247Z,3.00
2019-06-10T10:34:06.362Z,2.60
2019-06-10T10:36:36.484Z,2.95
2019-06-10T10:39:09.678Z,2.70
2019-06-10T10:41:43.179Z,3.02
2019-06-10T10:44:13.851Z,3.20
2019-06-10T10:46:47.461Z,2.90
2019-06-10T10:49:17.630Z,3.30
2019-06-10T10:51:49.048Z,2.87
2019-06-10T10:54:32.177Z,2.98
2019-06-10T10:56:58.663Z,3.30
2019-06-10T10:59:24.548Z,3.70
2019-06-10T11:01:56.993Z,3.47
2019-06-10T11:04:27.459Z,3.58
2019-06-10T11:07:00.410Z,3.20
2019-06-10T11:09:32.881Z,3.12
2019-06-10T11:12:03.586Z,3.00
2019-06-10T11:14:34.248Z,3.12
2019-06-10T11:17:04.295Z,3.00
2019-06-10T11:19:35.386Z,3.20
2019-06-10T11:22:05.459Z,3.80
2019-06-10T11:24:40.826Z,3.20
2019-06-10T11:27:07.774Z,3.93
2019-06-10T11:29:37.853Z,3.80
2019-06-10T11:32:07.893Z,3.50
2019-06-10T11:34:37.872Z,3.17
2019-06-10T11:37:08.242Z,3.50
2019-06-10T11:39:38.806Z,3.40
2019-06-10T11:42:10.321Z,3.10
2019-06-10T11:44:42.502Z,3.40
2019-06-10T11:47:13.252Z,4.00
2019-06-10T11:49:48.943Z,3.20
2019-06-10T11:52:19.611Z,3.52
2019-06-10T11:55:05.616Z,3.47
2019-06-10T11:57:27.490Z,2.90
2019-06-10T11:59:59.490Z,3.47
2019-06-10T12:02:30.366Z,3.10
2019-06-10T12:05:03.514Z,3.20
2019-06-10T12:07:34.952Z,3.00
2019-06-10T12:10:07.103Z,3.12
2019-06-10T12:12:38.094Z,3.20
2019-06-10T12:15:12.014Z,3.15
2019-06-10T12:17:50.796Z,3.10
2019-06-10T12:20:18.282Z,2.85
2019-06-10T12:23:02.115Z,3.00
2019-06-10T12:25:39.291Z,3.08
2019-06-10T12:28:16.962Z,3.00
2019-06-10T12:30:59.246Z,2.90
2019-06-10T12:33:29.023Z,3.17
2019-06-10T12:36:01.480Z,3.00
2019-06-10T12:38:33.544Z,3.20
2019-06-10T12:41:36.666Z,3.50
2019-06-10T12:44:13.262Z,3.65
2019-06-10T12:46:45.865Z,3.00
2019-06-10T12:49:18.730Z,2.90
2019-06-10T12:52:16.609Z,3.30
2019-06-10T12:57:59.860Z,3.08
2019-06-10T13:00:34.914Z,2.90
2019-06-10T13:03:05.459Z,3.50
2019-06-10T13:05:42.349Z,3.20
2019-06-10T13:08:11.275Z,3.00
2019-06-10T13:10:47.644Z,3.02
2019-06-10T13:13:22.709Z,2.87
2019-06-10T13:15:53.799Z,3.30
2019-06-10T13:18:25.773Z,3.22
2019-06-10T13:20:57.273Z,2.90
2019-06-10T13:23:31.979Z,3.10
2019-06-10T13:26:03.195Z,3.10
2019-06-10T13:28:32.505Z,3.40
2019-06-10T13:31:06.242Z,3.12
2019-06-10T13:33:35.364Z,3.22
2019-06-10T13:36:06.913Z,3.17
2019-06-10T13:38:37.217Z,3.30
2019-06-10T13:41:08.136Z,3.20
2019-06-10T13:43:52.522Z,3.27
2019-06-10T13:46:24.469Z,3.35
2019-06-10T13:48:53.792Z,3.60
2019-06-10T13:51:23.705Z,3.22
2019-06-10T13:53:54.002Z,3.27
2019-06-10T13:56:43.019Z,3.20
2019-06-10T13:58:55.560Z,3.20
2019-06-10T14:01:25.541Z,3.22
2019-06-10T14:03:55.951Z,3.10
2019-06-10T14:06:39.725Z,3.50
2019-06-10T14:08:57.937Z,3.60
2019-06-10T14:11:30.095Z,3.25
2019-06-10T14:14:01.254Z,3.10
2019-06-10T14:16:33.125Z,3.57
2019-06-10T14:19:05.813Z,3.20
2019-06-10T14:21:35.147Z,3.50
2019-06-10T14:24:06.180Z,3.20
2019-06-10T14:26:42.104Z,3.47
2019-06-10T14:29:15.958Z,3.30
2019-06-10T14:31:47.737Z,3.30
2019-06-10T14:34:29.126Z,3.20
2019-06-10T14:37:00.854Z,3.25
2019-06-10T14:39:32.930Z,3.00
2019-06-10T14:42:05.263Z,3.37
2019-06-10T14:44:42.242Z,3.40
2019-06-10T14:47:14.006Z,3.42
2019-06-10T14:49:53.156Z,3.20
2019-06-10T14:52:26.062Z,3.30
2019-06-10T14:54:57.659Z,3.55
2019-06-10T14:57:28.162Z,3.80
2019-06-10T15:00:03.713Z,3.15
2019-06-10T15:02:34.184Z,3.40
2019-06-10T15:05:04.789Z,3.47
2019-06-10T15:07:35.010Z,3.50
2019-06-10T15:10:05.928Z,3.30
2019-06-10T15:12:36.025Z,3.20
2019-06-10T15:15:08.058Z,3.00
2019-06-10T15:17:43.191Z,3.60
2019-06-10T15:20:32.981Z,3.27
2019-06-10T15:23:36.388Z,3.50
2019-06-10T15:26:42.156Z,3.80
2019-06-10T15:29:11.168Z,3.55
2019-06-10T15:31:46.733Z,3.90
2019-06-10T15:34:29.591Z,3.45
2019-06-10T15:37:21.273Z,3.30
2019-06-10T15:40:32.737Z,3.40
2019-06-10T15:43:17.943Z,3.15
2019-06-10T15:45:54.277Z,3.80
2019-06-10T15:52:15.509Z,3.70
2019-06-10T15:54:45.148Z,3.50
2019-06-10T15:57:30.754Z,3.55
2019-06-10T15:59:47.560Z,3.90
2019-06-10T16:02:29.971Z,3.60
2019-06-10T16:05:01.302Z,3.30
2019-06-10T16:07:42.344Z,3.75
2019-06-10T16:10:18.968Z,3.27
2019-06-10T16:12:54.455Z,3.40
2019-06-10T16:15:32.906Z,3.50
2019-06-10T16:18:17.129Z,3.40
2019-06-10T16:20:43.022Z,3.40
2019-06-10T16:23:17.602Z,2.90
2019-06-10T16:25:57.509Z,3.22
2019-06-10T16:28:32.839Z,3.20
2019-06-10T16:31:16.608Z,3.20
2019-06-10T16:33:52.733Z,2.90
2019-06-10T16:36:42.630Z,3.40
2019-06-10T16:39:25.651Z,3.15
2019-06-10T16:41:56.713Z,3.35
2019-06-10T16:44:28.309Z,3.60
2019-06-10T16:47:03.041Z,2.90
2019-06-10T16:49:45.424Z,3.65
2019-06-10T16:53:17.787Z,3.20
2019-06-10T16:55:49.189Z,3.57
2019-06-10T17:02:34.434Z,3.50
2019-06-10T17:05:05.325Z,3.50
2019-06-10T17:07:35.964Z,4.17
2019-06-10T17:10:07.382Z,4.35
2019-06-10T17:16:43.657Z,4.37
2019-06-10T17:19:27.367Z,5.08
2019-06-10T17:21:56.192Z,5.30
2019-06-10T17:24:29.455Z,4.60
2019-06-10T17:26:59.526Z,4.60
2019-06-10T17:32:56.462Z,4.65
2019-06-10T17:45:28.812Z,5.00
2019-06-10T17:48:03.123Z,4.23
2019-06-10T17:50:42.873Z,4.12
2019-06-10T17:56:45.491Z,4.47
2019-06-10T17:59:12.863Z,4.25
2019-06-10T18:01:44.782Z,4.50
2019-06-10T18:04:37.029Z,4.08
2019-06-10T18:08:13.505Z,4.70
2019-06-10T18:11:07.590Z,4.78
2019-06-10T18:13:47.699Z,4.67
2019-06-10T18:19:38.983Z,4.70
2019-06-10T18:22:09.332Z,4.45
2019-06-10T18:24:42.904Z,4.20
2019-06-10T18:27:14.538Z,4.10
2019-06-10T18:29:50.022Z,4.33
2019-06-10T18:32:22.735Z,4.20
2019-06-10T18:34:52.159Z,4.40
2019-06-10T18:37:23.636Z,4.65
2019-06-10T18:40:03.844Z,4.47
2019-06-10T18:42:39.008Z,5.10
2019-06-10T18:45:52.984Z,3.90
2019-06-10T18:49:08.372Z,4.10
2019-06-10T18:55:31.396Z,4.70
2019-06-10T18:59:13.492Z,4.50
2019-06-10T19:01:43.201Z,4.53
2019-06-10T19:08:02.286Z,4.78
2019-06-10T19:11:24.503Z,4.60
2019-06-10T19:20:58.654Z,4.00
2019-06-10T19:23:47.651Z,3.80
2019-06-10T19:26:48.383Z,3.80
2019-06-10T19:32:54.375Z,3.40
2019-06-10T19:39:08.941Z,3.40
2019-06-10T19:41:41.101Z,3.08
2019-06-10T19:44:37.067Z,3.20
2019-06-10T19:47:07.583Z,4.58
2019-06-10T19:49:41.199Z,3.40
2019-06-10T19:52:23.618Z,3.70
2019-06-10T19:55:13.197Z,3.27
2019-06-10T19:57:39.547Z,3.02
2019-06-10T20:00:14.082Z,3.27
2019-06-10T20:02:57.929Z,3.27
2019-06-10T20:05:32.628Z,3.02
2019-06-10T20:09:02.718Z,2.90
2019-06-10T20:11:41.027Z,3.17
2019-06-10T20:14:12.826Z,3.25
2019-06-10T20:21:51.453Z,3.30
2019-06-10T20:24:16.619Z,3.50
2019-06-10T20:27:43.764Z,3.00
2019-06-10T20:33:47.574Z,3.02
2019-06-10T20:36:27.295Z,3.50
2019-06-10T20:39:01.818Z,3.45
2019-06-10T20:41:55.771Z,3.40
2019-06-10T20:44:43.251Z,3.70
2019-06-10T20:49:07.212Z,4.00
2019-06-10T20:55:51.046Z,3.80
2019-06-10T20:58:25.244Z,3.52
2019-06-10T21:00:57.414Z,3.15
2019-06-10T21:03:37.373Z,4.03
2019-06-10T21:06:09.437Z,3.50
2019-06-10T21:08:47.721Z,3.92
2019-06-10T21:26:23.635Z,4.33
2019-06-10T21:29:12.850Z,4.40
2019-06-10T21:31:55.037Z,4.20
2019-06-10T21:34:32.693Z,3.40
2019-06-10T21:37:05.210Z,3.72
2019-06-10T21:40:12.787Z,3.87
2019-06-10T21:45:42.887Z,3.62
2019-06-10T21:48:57.348Z,3.87
2019-06-10T21:51:06.021Z,3.83
2019-06-10T21:53:39.725Z,3.87
2019-06-10T21:56:24.589Z,4.12
2019-06-10T21:58:58.289Z,4.07
2019-06-10T22:02:18.388Z,4.75
2019-06-10T22:04:53.830Z,3.40
2019-06-10T22:07:34.637Z,3.80
2019-06-10T22:10:06.098Z,3.87
2019-06-10T22:12:44.051Z,3.25
2019-06-10T22:15:23.801Z,3.10
2019-06-10T22:17:55.946Z,3.58
2019-06-10T22:20:32.468Z,3.33
2019-06-10T22:23:09.028Z,3.25
2019-06-10T22:25:39.710Z,3.20
2019-06-10T22:28:13.084Z,3.10
2019-06-10T22:30:45.090Z,3.30
2019-06-10T22:33:15.672Z,3.50
2019-06-10T22:35:47.577Z,3.10
2019-06-10T22:38:22.284Z,3.70
2019-06-10T22:40:57.036Z,2.90
2019-06-10T22:43:42.543Z,3.35
2019-06-10T22:46:18.011Z,3.62
2019-06-10T22:48:51.161Z,3.53
2019-06-10T22:51:22.763Z,3.00
2019-06-10T22:53:58.394Z,3.67
2019-06-10T22:56:36.131Z,3.50
2019-06-10T22:59:08.584Z,3.90
2019-06-10T23:01:42.364Z,3.33
2019-06-10T23:04:14.016Z,3.40
2019-06-10T23:06:48.273Z,3.22
2019-06-10T23:09:22.198Z,3.27
2019-06-10T23:11:56.439Z,3.50
2019-06-10T23:14:27.788Z,3.30
2019-06-10T23:18:00.264Z,3.80
2019-06-10T23:20:57.937Z,3.50
2019-06-10T23:24:22.657Z,3.72
2019-06-10T23:26:43.437Z,3.42
2019-06-10T23:29:19.669Z,3.50
2019-06-10T23:31:55.522Z,3.50
2019-06-10T23:38:33.031Z,3.62
2019-06-10T23:41:13.005Z,3.50
2019-06-10T23:43:55.034Z,3.33
2019-06-10T23:46:28.804Z,3.70
2019-06-10T23:53:18.479Z,3.50
2019-06-10T23:55:56.220Z,3.62
2019-06-10T23:58:55.567Z,3.80
